createdAt,value
2017-10-22T00:02:33.767Z,100637.13
2017-10-22T00:07:35.745Z,100632.67
2017-10-22T00:12:37.708Z,100626.25
2017-10-22T00:17:39.767Z,100635.55
2017-10-22T00:22:41.680Z,100634.20
2017-10-22T00:27:43.587Z,100630.27
2017-10-22T00:32:45.592Z,100619.48
2017-10-22T00:37:47.563Z,100623.09
2017-10-22T00:42:49.620Z,100614.40
2017-10-22T00:47:51.591Z,100612.47
2017-10-22T00:52:53.503Z,100615.08
2017-10-22T00:57:55.514Z,100616.56
2017-10-22T01:02:57.527Z,100610.32
2017-10-22T01:07:59.433Z,100603.84
2017-10-22T01:13:01.398Z,100596.19
2017-10-22T01:18:03.409Z,100599.68
2017-10-22T01:23:05.444Z,100589.97
2017-10-22T01:28:07.522Z,100598.01
2017-10-22T01:33:09.519Z,100589.26
2017-10-22T01:38:11.535Z,100585.94
2017-10-22T01:43:13.599Z,100581.67
2017-10-22T01:48:15.602Z,100574.44
2017-10-22T01:53:17.642Z,100562.08
2017-10-22T01:58:19.756Z,100565.78
2017-10-22T02:03:21.737Z,100562.08
2017-10-22T02:08:24.518Z,100555.42
2017-10-22T02:13:26.556Z,100559.57
2017-10-22T02:18:28.520Z,100564.33
2017-10-22T02:23:30.436Z,100562.81
2017-10-22T02:28:32.394Z,100563.09
2017-10-22T02:33:34.378Z,100559.45
2017-10-22T02:38:37.069Z,100556.28
2017-10-22T02:43:39.096Z,100552.04
2017-10-22T02:48:41.760Z,100545.41
2017-10-22T02:53:43.686Z,100547.06
2017-10-22T02:58:45.579Z,100541.65
2017-10-22T03:03:47.525Z,100538.74
2017-10-22T03:08:49.492Z,100532.53
2017-10-22T03:13:51.448Z,100530.05
2017-10-22T03:18:58.341Z,100531.37
2017-10-22T03:24:06.434Z,100529.27
2017-10-22T03:29:09.487Z,100529.67
2017-10-22T03:34:11.759Z,100524.52
2017-10-22T03:39:13.744Z,100520.70
2017-10-22T03:44:15.837Z,100526.86
2017-10-22T03:49:17.740Z,100521.34
2017-10-22T03:54:19.687Z,100518.80
2017-10-22T03:59:21.611Z,100520.94
2017-10-22T04:04:23.509Z,100526.19
2017-10-22T04:09:25.492Z,100525.29
2017-10-22T04:14:28.415Z,100525.23
2017-10-22T04:19:31.072Z,100527.09
2017-10-22T04:24:33.040Z,100514.55
2017-10-22T04:29:38.696Z,100515.62
2017-10-22T04:34:40.723Z,100515.55
2017-10-22T04:39:42.714Z,100520.48
2017-10-22T04:44:44.756Z,100508.55
2017-10-22T04:49:46.668Z,100510.28
2017-10-22T04:54:48.917Z,100498.21
2017-10-22T04:59:50.899Z,100502.18
2017-10-22T05:04:53.249Z,100497.02
2017-10-22T05:09:55.354Z,100491.25
2017-10-22T05:14:57.240Z,100491.18
2017-10-22T05:19:59.968Z,100490.91
2017-10-22T05:25:01.916Z,100486.59
2017-10-22T05:30:03.899Z,100493.36
2017-10-22T05:35:05.979Z,100476.82
2017-10-22T05:40:07.945Z,100471.88
2017-10-22T05:45:09.937Z,100463.22
2017-10-22T05:50:12.606Z,100464.23
2017-10-22T05:55:14.573Z,100469.28
2017-10-22T06:00:16.528Z,100474.97
2017-10-22T06:05:24.929Z,100470.03
2017-10-22T06:10:27.222Z,100469.79
2017-10-22T06:15:30.000Z,100475.56
2017-10-22T06:20:31.917Z,100485.82
2017-10-22T06:25:33.863Z,100473.98
2017-10-22T06:30:36.575Z,100476.39
2017-10-22T06:35:39.307Z,100477.15
2017-10-22T06:40:42.083Z,100469.88
2017-10-22T06:45:44.074Z,100471.70
2017-10-22T06:50:46.141Z,100468.84
2017-10-22T06:55:48.937Z,100467.59
2017-10-22T07:00:51.020Z,100454.27
2017-10-22T07:05:53.152Z,100463.63
2017-10-22T07:10:55.226Z,100457.75
2017-10-22T07:15:57.149Z,100463.28
2017-10-22T07:20:59.110Z,100470.00
2017-10-22T07:26:01.065Z,100467.91
2017-10-22T07:31:03.012Z,100466.72
2017-10-22T07:36:04.995Z,100472.48
2017-10-22T07:41:08.059Z,100473.46
2017-10-22T07:46:10.150Z,100454.01
2017-10-22T07:51:12.939Z,100457.24
2017-10-22T07:56:14.885Z,100444.72
2017-10-22T08:01:16.852Z,100450.95
2017-10-22T08:06:18.833Z,100441.05
2017-10-22T08:11:20.831Z,100438.20
2017-10-22T08:16:22.821Z,100448.11
2017-10-22T08:21:24.868Z,100441.63
2017-10-22T08:26:26.795Z,100448.14
2017-10-22T08:31:28.742Z,100447.70
2017-10-22T08:36:30.696Z,100447.36
2017-10-22T08:41:33.397Z,100451.25
2017-10-22T08:46:35.536Z,100455.67
2017-10-22T08:51:38.228Z,100462.61
2017-10-22T08:56:40.238Z,100453.89
2017-10-22T09:01:42.240Z,100452.45
2017-10-22T09:06:44.228Z,100463.14
2017-10-22T09:11:46.248Z,100459.98
2017-10-22T09:16:48.288Z,100469.86
2017-10-22T09:21:50.299Z,100470.02
2017-10-22T09:26:52.379Z,100472.46
2017-10-22T09:31:54.373Z,100462.25
2017-10-22T09:36:56.332Z,100469.02
2017-10-22T09:41:58.399Z,100466.28
2017-10-22T09:47:01.162Z,100463.91
2017-10-22T09:52:03.197Z,100471.30
2017-10-22T09:57:05.175Z,100462.48
2017-10-22T10:02:07.228Z,100469.50
2017-10-22T10:07:09.259Z,100477.33
2017-10-22T10:12:11.970Z,100475.72
2017-10-22T10:17:14.759Z,100478.01
2017-10-22T10:22:16.807Z,100475.23
2017-10-22T10:27:19.535Z,100472.67
2017-10-22T10:32:21.581Z,100479.59
2017-10-22T10:37:23.572Z,100477.25
2017-10-22T10:42:25.600Z,100472.06
2017-10-22T10:47:27.671Z,100480.41
2017-10-22T10:52:29.712Z,100481.81
2017-10-22T10:57:31.756Z,100471.88
2017-10-22T11:02:34.756Z,100475.13
2017-10-22T11:07:37.397Z,100471.15
2017-10-22T11:12:40.774Z,100478.23
2017-10-22T11:17:43.315Z,100465.52
2017-10-22T11:22:45.916Z,100471.14
2017-10-22T11:27:47.844Z,100470.88
2017-10-22T11:32:50.465Z,100473.28
2017-10-22T11:37:52.460Z,100473.43
2017-10-22T11:42:54.880Z,100486.27
2017-10-22T11:47:56.877Z,100484.05
2017-10-22T11:52:58.853Z,100482.88
2017-10-22T11:58:00.812Z,100477.82
2017-10-22T12:03:02.806Z,100492.48
2017-10-22T12:08:04.771Z,100482.56
2017-10-22T12:13:06.771Z,100492.83
2017-10-22T12:18:08.745Z,100492.04
2017-10-22T12:23:10.736Z,100488.73
2017-10-22T12:28:12.652Z,100495.99
2017-10-22T12:33:15.339Z,100500.31
2017-10-22T12:38:17.351Z,100502.64
2017-10-22T12:43:19.350Z,100499.16
2017-10-22T12:48:21.414Z,100501.42
2017-10-22T12:53:23.351Z,100505.27
2017-10-22T12:58:25.296Z,100498.09
2017-10-22T13:03:27.304Z,100501.11
2017-10-22T13:08:30.056Z,100506.84
2017-10-22T13:13:34.117Z,100514.72
2017-10-22T13:18:36.481Z,100519.52
2017-10-22T13:23:38.905Z,100518.05
2017-10-22T13:28:51.413Z,100501.86
2017-10-22T13:33:54.071Z,100535.69
2017-10-22T13:38:56.120Z,100526.40
2017-10-22T13:43:58.132Z,100533.17
2017-10-22T13:49:00.127Z,100532.04
2017-10-22T13:54:02.104Z,100538.69
2017-10-22T13:59:04.811Z,100539.75
2017-10-22T14:04:06.725Z,100542.47
2017-10-22T14:09:08.640Z,100547.90
2017-10-22T14:14:11.328Z,100556.35
2017-10-22T14:19:13.272Z,100554.41
2017-10-22T14:24:15.208Z,100560.14
2017-10-22T14:29:17.871Z,100563.00
2017-10-22T14:34:20.537Z,100564.09
2017-10-22T14:39:22.459Z,100557.54
2017-10-22T14:44:24.456Z,100562.48
2017-10-22T14:49:26.438Z,100573.49
2017-10-22T14:54:29.307Z,100573.21
2017-10-22T14:59:31.239Z,100569.28
2017-10-22T15:04:34.030Z,100572.06
2017-10-22T15:09:36.134Z,100584.98
2017-10-22T15:14:38.170Z,100584.09
2017-10-22T15:19:40.866Z,100595.16
2017-10-22T15:24:42.787Z,100601.53
2017-10-22T15:29:45.480Z,100598.83
2017-10-22T15:34:47.858Z,100599.52
2017-10-22T15:39:49.783Z,100603.67
2017-10-22T15:44:51.755Z,100606.09
2017-10-22T15:49:53.718Z,100607.77
2017-10-22T15:54:55.622Z,100605.77
2017-10-22T15:59:57.561Z,100612.22
2017-10-22T16:05:01.676Z,100621.76
2017-10-22T16:10:04.514Z,100622.70
2017-10-22T16:15:07.179Z,100633.33
2017-10-22T16:20:09.184Z,100634.34
2017-10-22T16:25:11.267Z,100636.08
2017-10-22T16:30:13.991Z,100641.22
2017-10-22T16:35:16.649Z,100652.00
2017-10-22T16:40:18.580Z,100653.34
2017-10-22T16:45:20.535Z,100660.27
2017-10-22T16:50:22.542Z,100657.23
2017-10-22T16:55:24.473Z,100667.78
2017-10-22T17:00:26.449Z,100667.13
2017-10-22T17:05:28.428Z,100665.31
2017-10-22T17:10:30.417Z,100678.89
2017-10-22T17:15:32.353Z,100668.18
2017-10-22T17:20:34.358Z,100689.42
2017-10-22T17:25:37.047Z,100690.61
2017-10-22T17:30:38.945Z,100696.47
2017-10-22T17:35:40.852Z,100701.79
2017-10-22T17:40:42.885Z,100708.52
2017-10-22T17:45:45.600Z,100716.08
2017-10-22T17:50:48.231Z,100718.04
2017-10-22T17:55:50.932Z,100725.35
2017-10-22T18:00:53.380Z,100727.03
2017-10-22T18:05:55.362Z,100735.03
2017-10-22T18:10:59.280Z,100733.06
2017-10-22T18:16:01.456Z,100737.16
2017-10-22T18:21:03.520Z,100743.66
2017-10-22T18:26:05.571Z,100745.94
2017-10-22T18:31:07.548Z,100742.88
2017-10-22T18:36:10.307Z,100746.38
2017-10-22T18:41:12.249Z,100750.45
2017-10-22T18:46:14.422Z,100757.82
2017-10-22T18:51:16.333Z,100758.25
2017-10-22T18:56:18.295Z,100765.61
2017-10-22T19:01:20.279Z,100762.44
2017-10-22T19:06:22.784Z,100767.70
2017-10-22T19:11:25.107Z,100768.20
2017-10-22T19:16:27.089Z,100780.35
2017-10-22T19:21:29.012Z,100775.48
2017-10-22T19:26:30.944Z,100777.08
2017-10-22T19:31:32.836Z,100779.28
2017-10-22T19:36:34.741Z,100775.60
2017-10-22T19:41:36.644Z,100781.52
2017-10-22T19:46:38.607Z,100781.93
2017-10-22T19:51:41.443Z,100792.10
2017-10-22T19:56:44.255Z,100797.67
2017-10-22T20:01:46.972Z,100799.69
2017-10-22T20:06:49.671Z,100793.98
2017-10-22T20:11:51.727Z,100800.03
2017-10-22T20:16:53.640Z,100803.94
2017-10-22T20:21:55.547Z,100807.34
2017-10-22T20:26:57.563Z,100805.05
2017-10-22T20:31:59.582Z,100809.20
2017-10-22T20:37:01.615Z,100807.68
2017-10-22T20:42:03.600Z,100815.84
2017-10-22T20:47:05.592Z,100817.27
2017-10-22T20:52:07.500Z,100822.02
2017-10-22T20:57:09.420Z,100828.09
2017-10-22T21:02:11.372Z,100821.16
2017-10-22T21:07:13.315Z,100821.73
2017-10-22T21:12:15.320Z,100825.45
2017-10-22T21:17:17.248Z,100826.05
2017-10-22T21:22:19.185Z,100830.19
2017-10-22T21:27:21.845Z,100828.70
2017-10-22T21:32:23.776Z,100837.17
2017-10-22T21:37:25.857Z,100839.24
2017-10-22T21:42:27.829Z,100843.33
2017-10-22T21:47:29.834Z,100848.44
2017-10-22T21:52:31.822Z,100842.83
2017-10-22T21:57:34.481Z,100846.27
2017-10-22T22:02:36.483Z,100848.09
2017-10-22T22:07:38.488Z,100846.39
2017-10-22T22:12:40.427Z,100849.42
2017-10-22T22:17:42.407Z,100846.34
2017-10-22T22:22:44.314Z,100860.02
2017-10-22T22:27:46.268Z,100865.25
2017-10-22T22:32:48.975Z,100861.89
2017-10-22T22:37:52.340Z,100862.31
2017-10-22T22:42:55.082Z,100844.41
2017-10-22T22:47:57.915Z,100850.03
2017-10-22T22:53:00.647Z,100853.06
2017-10-22T22:58:03.244Z,100854.66
2017-10-22T23:03:05.163Z,100842.30
2017-10-22T23:08:07.060Z,100848.02
2017-10-22T23:13:08.995Z,100849.04
2017-10-22T23:18:10.965Z,100849.17
2017-10-22T23:23:12.866Z,100848.22
2017-10-22T23:28:15.350Z,100850.06
2017-10-22T23:33:17.725Z,100854.58
2017-10-22T23:38:20.436Z,100850.20
2017-10-22T23:43:23.149Z,100841.80
2017-10-22T23:48:25.126Z,100842.47
2017-10-22T23:53:27.046Z,100846.33
2017-10-22T23:58:28.978Z,100842.94
